createdAt,value
2022-10-11T00:00:17.916Z,95.25
2022-10-11T00:05:19.756Z,95.21
2022-10-11T00:10:22.167Z,95.10
2022-10-11T00:15:24.126Z,95.22
2022-10-11T00:20:26.477Z,95.40
2022-10-11T00:25:28.453Z,95.55
2022-10-11T00:30:30.006Z,95.62
2022-10-11T00:35:31.569Z,95.41
2022-10-11T00:40:33.286Z,95.54
2022-10-11T00:45:34.736Z,95.55
2022-10-11T00:50:37.385Z,95.63
2022-10-11T00:55:49.381Z,95.61
2022-10-11T01:00:51.260Z,95.80
2022-10-11T01:05:54.103Z,95.64
2022-10-11T01:10:56.708Z,95.51
2022-10-11T01:16:14.434Z,95.75
2022-10-11T01:21:25.762Z,95.65
2022-10-11T01:26:40.465Z,95.72
2022-10-11T01:32:00.854Z,95.83
2022-10-11T01:37:14.915Z,95.75
2022-10-11T01:42:18.984Z,95.89
2022-10-11T01:47:22.831Z,95.95
2022-10-11T01:52:28.329Z,95.89
2022-10-11T01:58:00.845Z,95.89
2022-10-11T02:03:08.642Z,95.90
2022-10-11T02:08:27.258Z,95.99
2022-10-11T02:13:33.259Z,96.05
2022-10-11T02:18:41.556Z,95.89
2022-10-11T02:23:50.113Z,95.98
2022-10-11T02:28:56.644Z,95.99
2022-10-11T02:34:19.136Z,95.98
2022-10-11T02:39:26.988Z,96.14
2022-10-11T02:44:46.538Z,96.11
2022-10-11T02:49:48.151Z,96.23
2022-10-11T02:54:49.636Z,96.10
2022-10-11T02:59:51.184Z,96.19
2022-10-11T03:04:52.703Z,96.11
2022-10-11T03:09:54.554Z,96.26
2022-10-11T03:14:56.217Z,96.07
2022-10-11T03:19:57.699Z,96.17
2022-10-11T03:25:03.645Z,96.22
2022-10-11T03:30:08.910Z,96.34
2022-10-11T03:35:10.637Z,95.99
2022-10-11T03:40:13.251Z,96.30
2022-10-11T03:45:15.103Z,96.11
2022-10-11T03:50:16.829Z,96.47
2022-10-11T03:55:18.318Z,96.30
2022-10-11T04:00:19.917Z,96.30
2022-10-11T04:05:21.477Z,96.13
2022-10-11T04:10:23.145Z,96.30
2022-10-11T04:15:24.860Z,96.42
2022-10-11T04:20:26.597Z,95.96
2022-10-11T04:25:28.196Z,96.77
2022-10-11T04:30:29.881Z,96.52
2022-10-11T04:35:32.201Z,96.54
2022-10-11T04:40:33.864Z,96.60
2022-10-11T04:45:35.493Z,96.58
2022-10-11T04:50:37.478Z,96.53
2022-10-11T04:55:42.428Z,96.81
2022-10-11T05:00:43.942Z,96.65
2022-10-11T05:05:45.625Z,96.99
2022-10-11T05:10:57.215Z,96.81
2022-10-11T05:15:58.759Z,96.89
2022-10-11T05:21:04.518Z,96.96
2022-10-11T05:26:06.459Z,96.76
2022-10-11T05:31:08.366Z,96.95
2022-10-11T05:36:10.253Z,96.95
2022-10-11T05:41:14.838Z,96.84
2022-10-11T05:46:16.720Z,97.06
2022-10-11T05:51:18.575Z,97.10
2022-10-11T05:56:22.116Z,96.86
2022-10-11T06:01:26.097Z,97.06
2022-10-11T06:06:27.838Z,97.14
2022-10-11T06:11:30.012Z,97.23
2022-10-11T06:16:31.629Z,97.13
2022-10-11T06:21:33.140Z,96.91
2022-10-11T06:26:35.071Z,97.18
2022-10-11T06:31:36.601Z,97.27
2022-10-11T06:36:38.427Z,97.34
2022-10-11T06:41:40.121Z,97.23
2022-10-11T06:46:41.724Z,97.19
2022-10-11T06:51:43.405Z,97.25
2022-10-11T06:56:45.665Z,97.25
2022-10-11T07:01:47.355Z,97.05
2022-10-11T07:06:48.932Z,96.80
2022-10-11T07:11:50.802Z,96.94
2022-10-11T07:16:52.314Z,96.71
2022-10-11T07:21:54.229Z,96.68
2022-10-11T07:26:58.081Z,94.89
2022-10-11T07:31:59.791Z,89.10
2022-10-11T07:37:01.480Z,83.37
2022-10-11T07:42:02.989Z,76.38
2022-10-11T07:47:08.929Z,71.41
2022-10-11T07:52:12.598Z,68.06
2022-10-11T07:57:15.406Z,65.83
2022-10-11T08:02:17.264Z,67.00
2022-10-11T08:07:18.770Z,69.75
2022-10-11T08:12:20.623Z,72.26
2022-10-11T08:17:22.132Z,73.66
2022-10-11T08:22:23.825Z,75.01
2022-10-11T08:27:25.367Z,75.38
2022-10-11T08:32:26.824Z,75.66
2022-10-11T08:37:28.526Z,75.80
2022-10-11T08:42:42.263Z,75.80
2022-10-11T08:47:45.084Z,76.19
2022-10-11T08:52:56.083Z,76.11
2022-10-11T08:57:58.946Z,75.20
2022-10-11T09:03:46.457Z,75.21
2022-10-11T09:09:12.665Z,74.96
2022-10-11T09:14:23.131Z,74.42
2022-10-11T09:19:30.822Z,74.31
2022-10-11T09:24:48.210Z,73.87
2022-10-11T09:30:05.381Z,73.73
2022-10-11T09:35:16.862Z,73.12
2022-10-11T09:40:18.625Z,72.57
2022-10-11T09:45:22.123Z,71.88
2022-10-11T09:50:26.178Z,70.69
2022-10-11T09:56:00.829Z,70.41
2022-10-11T10:01:08.257Z,69.78
2022-10-11T10:06:16.706Z,69.60
2022-10-11T10:11:19.335Z,68.37
2022-10-11T10:16:28.031Z,68.17
2022-10-11T10:21:49.387Z,67.53
2022-10-11T10:27:25.719Z,66.51
2022-10-11T10:32:34.707Z,65.94
2022-10-11T10:37:45.747Z,65.72
2022-10-11T10:42:47.610Z,64.77
2022-10-11T10:47:58.368Z,64.55
2022-10-11T10:53:17.167Z,64.76
2022-10-11T10:59:00.746Z,64.28
2022-10-11T11:44:43.859Z,62.34
2022-10-11T11:50:09.769Z,61.92
2022-10-11T11:55:27.917Z,60.95
2022-10-11T12:00:42.173Z,60.65
2022-10-11T12:06:12.433Z,60.59
2022-10-11T12:11:34.616Z,60.73
2022-10-11T12:17:11.202Z,60.53
2022-10-11T12:22:28.031Z,60.25
2022-10-11T12:27:43.280Z,59.99
2022-10-11T12:33:28.584Z,59.94
2022-10-11T12:38:44.643Z,60.34
2022-10-11T12:43:49.366Z,60.21
2022-10-11T12:49:37.641Z,60.36
2022-10-11T12:55:02.614Z,60.58
2022-10-11T13:00:18.897Z,59.40
2022-10-11T13:05:23.354Z,59.26
2022-10-11T13:10:36.555Z,59.00
2022-10-11T13:15:38.053Z,59.57
2022-10-11T13:20:41.799Z,59.85
2022-10-11T13:25:44.653Z,60.21
2022-10-11T13:30:56.080Z,60.35
2022-10-11T13:35:59.179Z,59.63
2022-10-11T13:41:04.786Z,59.52
2022-10-11T13:46:10.918Z,59.75
2022-10-11T13:51:19.291Z,60.68
2022-10-11T13:56:20.766Z,60.32
2022-10-11T14:01:40.770Z,59.85
2022-10-11T14:06:48.331Z,60.16
2022-10-11T14:11:50.800Z,60.75
2022-10-11T14:17:05.703Z,61.34
2022-10-11T14:22:13.914Z,62.10
2022-10-11T14:27:22.821Z,62.64
2022-10-11T14:32:36.336Z,63.33
2022-10-11T14:37:38.420Z,63.96
2022-10-11T14:42:39.899Z,64.20
2022-10-11T14:47:49.381Z,64.68
2022-10-11T14:52:50.967Z,64.62
2022-10-11T14:57:52.506Z,64.71
2022-10-11T15:02:55.177Z,64.91
2022-10-11T15:07:57.889Z,65.39
2022-10-11T15:12:59.627Z,66.07
2022-10-11T15:18:01.910Z,66.45
2022-10-11T15:23:05.402Z,67.36
2022-10-11T15:28:07.817Z,67.72
2022-10-11T15:33:09.416Z,68.36
2022-10-11T15:38:18.510Z,68.81
2022-10-11T15:43:24.456Z,69.52
2022-10-11T15:48:26.997Z,70.03
2022-10-11T15:53:32.196Z,70.54
2022-10-11T15:58:36.637Z,70.71
2022-10-11T16:03:38.355Z,70.88
2022-10-11T16:08:40.153Z,71.26
2022-10-11T16:13:41.827Z,71.47
2022-10-11T16:18:43.365Z,71.47
2022-10-11T16:23:44.844Z,71.76
2022-10-11T16:28:48.237Z,72.11
2022-10-11T16:33:52.795Z,72.60
2022-10-11T16:38:54.286Z,72.92
2022-10-11T16:43:56.377Z,73.59
2022-10-11T16:48:57.976Z,74.31
2022-10-11T16:54:00.462Z,74.73
2022-10-11T16:59:03.673Z,75.55
2022-10-11T17:04:05.922Z,76.16
2022-10-11T17:09:07.876Z,76.70
2022-10-11T17:14:11.924Z,77.43
2022-10-11T17:19:15.678Z,78.06
2022-10-11T17:24:17.877Z,78.48
2022-10-11T17:29:21.345Z,78.97
2022-10-11T17:34:23.241Z,79.27
2022-10-11T17:39:26.250Z,79.89
2022-10-11T17:44:28.056Z,80.33
2022-10-11T17:49:30.121Z,80.73
2022-10-11T17:54:31.650Z,81.11
2022-10-11T17:59:35.157Z,81.40
2022-10-11T18:04:37.441Z,81.93
2022-10-11T18:09:40.725Z,82.35
2022-10-11T18:14:42.378Z,82.68
2022-10-11T18:19:44.218Z,83.36
2022-10-11T18:24:45.677Z,83.49
2022-10-11T18:29:47.191Z,83.85
2022-10-11T18:34:48.987Z,84.32
2022-10-11T18:39:51.651Z,84.39
2022-10-11T18:44:54.249Z,84.96
2022-10-11T18:49:55.717Z,85.32
2022-10-11T18:54:58.414Z,85.40
2022-10-11T19:00:07.352Z,85.83
2022-10-11T19:05:13.560Z,85.83
2022-10-11T19:10:15.540Z,86.03
2022-10-11T19:15:17.122Z,86.14
2022-10-11T19:20:19.891Z,86.06
2022-10-11T19:25:21.790Z,86.24
2022-10-11T19:30:26.096Z,86.38
2022-10-11T19:35:28.244Z,86.41
2022-10-11T19:40:31.598Z,86.59
2022-10-11T19:45:36.017Z,86.59
2022-10-11T19:50:38.600Z,86.25
2022-10-11T19:55:45.657Z,86.37
2022-10-11T20:00:48.554Z,86.44
2022-10-11T20:05:50.532Z,86.36
2022-10-11T20:10:55.236Z,86.59
2022-10-11T20:16:05.259Z,86.95
2022-10-11T20:21:11.963Z,87.05
2022-10-11T20:26:20.873Z,87.25
2022-10-11T20:31:25.622Z,87.04
2022-10-11T20:36:30.066Z,86.99
2022-10-11T20:41:34.560Z,87.19
2022-10-11T20:46:39.368Z,87.29
2022-10-11T20:51:42.063Z,87.47
2022-10-11T20:56:43.643Z,87.46
2022-10-11T21:01:45.168Z,87.86
2022-10-11T21:06:48.249Z,87.93
2022-10-11T21:11:49.706Z,88.21
2022-10-11T21:16:51.208Z,88.33
2022-10-11T21:21:53.805Z,88.32
2022-10-11T21:27:00.273Z,88.67
2022-10-11T21:32:02.879Z,88.62
2022-10-11T21:37:05.611Z,88.80
2022-10-11T21:42:07.184Z,89.14
2022-10-11T21:47:10.476Z,89.41
2022-10-11T21:52:12.337Z,89.41
2022-10-11T21:57:14.499Z,89.63
2022-10-11T22:02:15.952Z,89.64
2022-10-11T22:07:18.362Z,89.82
2022-10-11T22:12:19.815Z,89.82
2022-10-11T22:17:21.469Z,89.93
2022-10-11T22:22:23.288Z,89.86
2022-10-11T22:27:25.418Z,90.12
2022-10-11T22:32:27.277Z,90.22
2022-10-11T22:37:29.502Z,90.27
2022-10-11T22:42:30.984Z,90.31
2022-10-11T22:47:32.822Z,90.52
2022-10-11T22:52:34.388Z,90.64
2022-10-11T22:57:36.478Z,90.63
2022-10-11T23:02:38.447Z,90.60
2022-10-11T23:07:40.904Z,90.71
2022-10-11T23:12:43.331Z,90.77
2022-10-11T23:17:44.799Z,90.85
2022-10-11T23:22:46.533Z,90.89
2022-10-11T23:27:48.479Z,90.97
2022-10-11T23:32:50.194Z,90.80
2022-10-11T23:37:54.043Z,90.90
2022-10-11T23:42:55.937Z,90.96
2022-10-11T23:47:58.035Z,90.99
2022-10-11T23:52:59.737Z,91.03
2022-10-11T23:58:02.184Z,91.02
